Joy — V2EI9 — position and weather

sailwx.info

Track history (hours):
 
Tides and Currents Weather Stations Pressure Air Temp Water Temp Dewpoint Dewpoint Depression Visibility Wind Speed Wind Dir Waves Ship Positions

Joy

Last reported at 2014-Sep-17 12:31 UTC. Time now 2014-Sep-17 13:35 UTC.
Position N 55°45' E 012°43'.

Length 105 m; draft 4 m.

Type: Cargo ship. MMSI: 305444000.

Date/timePositionNaut miles runAvg speedWind from/ knotsBaromVisibWave heightAir tempDewpointWater temp
2014-Sep-17 12:31N 55°45' E 012°43'0 0.0
2014-Sep-17 11:31N 55°45' E 012°43'0 0.0
2014-Sep-17 10:31N 55°45' E 012°43'0 0.0
2014-Sep-17 09:31N 55°45' E 012°43'0 0.0
2014-Sep-17 08:31N 55°45' E 012°43'0 0.0
2014-Sep-17 07:31N 55°45' E 012°43'0 0.0
2014-Sep-17 06:31N 55°45' E 012°43'0 0.0
2014-Sep-17 05:31N 55°45' E 012°43'0 0.0
2014-Sep-17 04:31N 55°45' E 012°43'0 0.0
2014-Sep-17 03:31N 55°45' E 012°43'0 0.0
2014-Sep-17 02:32N 55°45' E 012°43'0 0.0
2014-Sep-17 01:31N 55°45' E 012°43'0 0.0
2014-Sep-17 00:31N 55°45' E 012°43'0 0.0
2014-Sep-16 23:31N 55°45' E 012°43'0 0.0
2014-Sep-16 22:31N 55°45' E 012°43'0 0.0
2014-Sep-16 21:31N 55°45' E 012°43'0 0.0
2014-Sep-16 20:31N 55°45' E 012°43'0 0.0
2014-Sep-16 19:31N 55°45' E 012°43'0 0.0
2014-Sep-16 18:31N 55°45' E 012°43'0 0.0
2014-Sep-16 17:31N 55°45' E 012°43'0 0.0
2014-Sep-16 16:31N 55°45' E 012°43'0 0.0
2014-Sep-16 15:31N 55°45' E 012°43'0 0.0
2014-Sep-16 14:31N 55°45' E 012°43'0 0.0
2014-Sep-16 13:31N 55°45' E 012°43'0 0.0
2014-Sep-16 12:31N 55°45' E 012°43'0 0.0
2014-Sep-16 11:31N 55°45' E 012°43'0 0.0
2014-Sep-16 10:31N 55°45' E 012°43'0 0.0
2014-Sep-16 09:31N 55°45' E 012°43'0 0.0
2014-Sep-16 08:31N 55°45' E 012°43'0 0.0
2014-Sep-16 07:31N 55°45' E 012°43'0 0.0
2014-Sep-16 06:31N 55°45' E 012°43'0 0.0
2014-Sep-16 05:31N 55°45' E 012°43'0 0.0
2014-Sep-16 04:31N 55°45' E 012°43'0 0.0
2014-Sep-16 03:31N 55°45' E 012°43'0 0.0
2014-Sep-16 02:31N 55°45' E 012°43'0 0.0
2014-Sep-16 01:34N 55°45' E 012°43'0 0.0
2014-Sep-16 00:33N 55°45' E 012°43'0 0.0
2014-Sep-15 23:33N 55°45' E 012°43'0 0.0
2014-Sep-15 22:33N 55°45' E 012°43'0 0.0
2014-Sep-15 21:30N 55°45' E 012°43'0 0.0
2014-Sep-15 20:33N 55°45' E 012°43'0 0.0
2014-Sep-15 19:33N 55°45' E 012°43'0 0.0
2014-Sep-15 18:33N 55°45' E 012°43'0 0.0
2014-Sep-15 17:33N 55°45' E 012°43'0 0.0
2014-Sep-15 16:30N 55°45' E 012°43'0 0.0
2014-Sep-15 15:33N 55°45' E 012°43'0 0.0
2014-Sep-15 14:33N 55°45' E 012°43'0 0.0
2014-Sep-15 13:33N 55°45' E 012°43'0 0.0
2014-Sep-15 12:33N 55°45' E 012°43'0 0.0
2014-Sep-15 11:33N 55°45' E 012°43'0 0.0
2014-Sep-15 10:33N 55°45' E 012°43'0 0.0
2014-Sep-15 09:33N 55°45' E 012°43'0 0.0
2014-Sep-15 08:33N 55°45' E 012°43'0 0.0
2014-Sep-15 07:33N 55°45' E 012°43'1 0.7
2014-Sep-15 06:34N 55°46' E 012°43'1010.4
2014-Sep-15 05:34N 55°56' E 012°38'9 9.3
2014-Sep-15 04:34N 56°05' E 012°35'10 9.8
2014-Sep-15 03:34N 56°11' E 012°21'1010.2
2014-Sep-15 02:34N 56°17' E 012°06'8 8.3
2014-Sep-15 01:32N 56°24' E 011°60'8 8.1
2014-Sep-15 00:33N 56°32' E 011°57'8 7.7
2014-Sep-14 23:34N 56°40' E 011°54'8 7.8
2014-Sep-14 22:33N 56°47' E 011°50'8 8.5
2014-Sep-14 21:33N 56°56' E 011°45'9 9.4
2014-Sep-14 20:34N 57°04' E 011°39'10 9.9
2014-Sep-14 19:34N 57°14' E 011°33'1010.2
2014-Sep-14 18:33N 57°23' E 011°27'1010.2
2014-Sep-14 17:33N 57°32' E 011°16'1110.8
2014-Sep-14 16:33N 57°39' E 011°01'1310.7
2014-Sep-14 15:21N 57°48' E 010°43'66 9.3
2014-Sep-14 08:19N 57°24' E 008°49'14010.1
2014-Sep-13 18:26N 55°32' E 006°19'1010.8
2014-Sep-13 17:33N 55°23' E 006°11'1111.0
2014-Sep-13 16:33N 55°14' E 006°01'1110.8
2014-Sep-13 15:33N 55°05' E 005°52'1110.8
2014-Sep-13 14:33N 54°55' E 005°43'1110.8
2014-Sep-13 13:33N 54°46' E 005°33'1010.6
2014-Sep-13 12:34N 54°37' E 005°24'1110.7
2014-Sep-13 11:34N 54°27' E 005°16'1110.7
2014-Sep-13 10:33N 54°18' E 005°06'1110.8
2014-Sep-13 09:33N 54°09' E 004°57'1110.7
2014-Sep-13 08:34N 53°58' E 004°54'1310.6
2014-Sep-13 07:22N 53°46' E 004°52'911.1
2014-Sep-13 06:33N 53°37' E 004°50'1110.9
2014-Sep-13 05:34N 53°27' E 004°43'21 9.9
2014-Sep-13 03:28N 53°08' E 004°28'9 9.4
2014-Sep-13 02:33N 53°00' E 004°22'10 9.7
2014-Sep-13 01:34N 52°52' E 004°15'10 9.5
2014-Sep-13 00:33N 52°43' E 004°07'9 9.2
2014-Sep-12 23:33N 52°37' E 003°56'9 9.1
2014-Sep-12 22:33N 52°31' E 003°45'9 9.3
2014-Sep-12 21:34N 52°24' E 003°34'5811.0
2014-Sep-12 16:17N 51°42' E 002°31'912.6
2014-Sep-12 15:33N 51°34' E 002°21'1212.6
2014-Sep-12 14:33N 51°24' E 002°09'1212.0
2014-Sep-12 13:34N 51°13' E 002°02'1212.2
2014-Sep-12 12:33N 51°06' E 001°46'49 9.2
2014-Sep-12 07:16N 50°28' E 000°56'7 9.3
2014-Sep-12 06:28N 50°26' E 000°45'9 9.3
2014-Sep-12 05:33N 50°24' E 000°32'27110.0
2014-Sep-11 02:26N 48°13' W 005°31'2912.5
2014-Sep-11 00:05N 47°45' W 005°17'710.8
2014-Sep-10 23:23N 47°38' W 005°14'19311.5
2014-Sep-10 06:29N 44°36' W 003°41'1111.8
2014-Sep-10 05:33N 44°25' W 003°36'1111.2
2014-Sep-10 04:33N 44°15' W 003°30'  
Track history (hours):
 
Tides and Currents Weather Stations Pressure Air Temp Water Temp Dewpoint Dewpoint Depression Visibility Wind Speed Wind Dir Waves Ship Positions

Joy

Last reported at 2014-Sep-17 12:31 UTC. Time now 2014-Sep-17 13:35 UTC.
Position N 55°45' E 012°43'.

Length 105 m; draft 4 m.

Type: Cargo ship. MMSI: 305444000.

Date/timePositionNaut miles runAvg speedWind from/ knotsBaromVisibWave heightAir tempDewpointWater temp
2014-Sep-17 12:31N 55°45' E 012°43'0 0.0
2014-Sep-17 11:31N 55°45' E 012°43'0 0.0
2014-Sep-17 10:31N 55°45' E 012°43'0 0.0
2014-Sep-17 09:31N 55°45' E 012°43'0 0.0
2014-Sep-17 08:31N 55°45' E 012°43'0 0.0
2014-Sep-17 07:31N 55°45' E 012°43'0 0.0
2014-Sep-17 06:31N 55°45' E 012°43'0 0.0
2014-Sep-17 05:31N 55°45' E 012°43'0 0.0
2014-Sep-17 04:31N 55°45' E 012°43'0 0.0
2014-Sep-17 03:31N 55°45' E 012°43'0 0.0
2014-Sep-17 02:32N 55°45' E 012°43'0 0.0
2014-Sep-17 01:31N 55°45' E 012°43'0 0.0
2014-Sep-17 00:31N 55°45' E 012°43'0 0.0
2014-Sep-16 23:31N 55°45' E 012°43'0 0.0
2014-Sep-16 22:31N 55°45' E 012°43'0 0.0
2014-Sep-16 21:31N 55°45' E 012°43'0 0.0
2014-Sep-16 20:31N 55°45' E 012°43'0 0.0
2014-Sep-16 19:31N 55°45' E 012°43'0 0.0
2014-Sep-16 18:31N 55°45' E 012°43'0 0.0
2014-Sep-16 17:31N 55°45' E 012°43'0 0.0
2014-Sep-16 16:31N 55°45' E 012°43'0 0.0
2014-Sep-16 15:31N 55°45' E 012°43'0 0.0
2014-Sep-16 14:31N 55°45' E 012°43'0 0.0
2014-Sep-16 13:31N 55°45' E 012°43'0 0.0
2014-Sep-16 12:31N 55°45' E 012°43'0 0.0
2014-Sep-16 11:31N 55°45' E 012°43'0 0.0
2014-Sep-16 10:31N 55°45' E 012°43'0 0.0
2014-Sep-16 09:31N 55°45' E 012°43'0 0.0
2014-Sep-16 08:31N 55°45' E 012°43'0 0.0
2014-Sep-16 07:31N 55°45' E 012°43'0 0.0
2014-Sep-16 06:31N 55°45' E 012°43'0 0.0
2014-Sep-16 05:31N 55°45' E 012°43'0 0.0
2014-Sep-16 04:31N 55°45' E 012°43'0 0.0
2014-Sep-16 03:31N 55°45' E 012°43'0 0.0
2014-Sep-16 02:31N 55°45' E 012°43'0 0.0
2014-Sep-16 01:34N 55°45' E 012°43'0 0.0
2014-Sep-16 00:33N 55°45' E 012°43'0 0.0
2014-Sep-15 23:33N 55°45' E 012°43'0 0.0
2014-Sep-15 22:33N 55°45' E 012°43'0 0.0
2014-Sep-15 21:30N 55°45' E 012°43'0 0.0
2014-Sep-15 20:33N 55°45' E 012°43'0 0.0
2014-Sep-15 19:33N 55°45' E 012°43'0 0.0
2014-Sep-15 18:33N 55°45' E 012°43'0 0.0
2014-Sep-15 17:33N 55°45' E 012°43'0 0.0
2014-Sep-15 16:30N 55°45' E 012°43'0 0.0
2014-Sep-15 15:33N 55°45' E 012°43'0 0.0
2014-Sep-15 14:33N 55°45' E 012°43'0 0.0
2014-Sep-15 13:33N 55°45' E 012°43'0 0.0
2014-Sep-15 12:33N 55°45' E 012°43'0 0.0
2014-Sep-15 11:33N 55°45' E 012°43'0 0.0
2014-Sep-15 10:33N 55°45' E 012°43'0 0.0
2014-Sep-15 09:33N 55°45' E 012°43'0 0.0
2014-Sep-15 08:33N 55°45' E 012°43'0 0.0
2014-Sep-15 07:33N 55°45' E 012°43'1 0.7
2014-Sep-15 06:34N 55°46' E 012°43'1010.4
2014-Sep-15 05:34N 55°56' E 012°38'9 9.3
2014-Sep-15 04:34N 56°05' E 012°35'10 9.8
2014-Sep-15 03:34N 56°11' E 012°21'1010.2
2014-Sep-15 02:34N 56°17' E 012°06'8 8.3
2014-Sep-15 01:32N 56°24' E 011°60'8 8.1
2014-Sep-15 00:33N 56°32' E 011°57'8 7.7
2014-Sep-14 23:34N 56°40' E 011°54'8 7.8
2014-Sep-14 22:33N 56°47' E 011°50'8 8.5
2014-Sep-14 21:33N 56°56' E 011°45'9 9.4
2014-Sep-14 20:34N 57°04' E 011°39'10 9.9
2014-Sep-14 19:34N 57°14' E 011°33'1010.2
2014-Sep-14 18:33N 57°23' E 011°27'1010.2
2014-Sep-14 17:33N 57°32' E 011°16'1110.8
2014-Sep-14 16:33N 57°39' E 011°01'1310.7
2014-Sep-14 15:21N 57°48' E 010°43'66 9.3
2014-Sep-14 08:19N 57°24' E 008°49'14010.1
2014-Sep-13 18:26N 55°32' E 006°19'1010.8
2014-Sep-13 17:33N 55°23' E 006°11'1111.0
2014-Sep-13 16:33N 55°14' E 006°01'1110.8
2014-Sep-13 15:33N 55°05' E 005°52'1110.8
2014-Sep-13 14:33N 54°55' E 005°43'1110.8
2014-Sep-13 13:33N 54°46' E 005°33'1010.6
2014-Sep-13 12:34N 54°37' E 005°24'1110.7
2014-Sep-13 11:34N 54°27' E 005°16'1110.7
2014-Sep-13 10:33N 54°18' E 005°06'1110.8
2014-Sep-13 09:33N 54°09' E 004°57'1110.7
2014-Sep-13 08:34N 53°58' E 004°54'1310.6
2014-Sep-13 07:22N 53°46' E 004°52'911.1
2014-Sep-13 06:33N 53°37' E 004°50'1110.9
2014-Sep-13 05:34N 53°27' E 004°43'21 9.9
2014-Sep-13 03:28N 53°08' E 004°28'9 9.4
2014-Sep-13 02:33N 53°00' E 004°22'10 9.7
2014-Sep-13 01:34N 52°52' E 004°15'10 9.5
2014-Sep-13 00:33N 52°43' E 004°07'9 9.2
2014-Sep-12 23:33N 52°37' E 003°56'9 9.1
2014-Sep-12 22:33N 52°31' E 003°45'9 9.3
2014-Sep-12 21:34N 52°24' E 003°34'5811.0
2014-Sep-12 16:17N 51°42' E 002°31'912.6
2014-Sep-12 15:33N 51°34' E 002°21'1212.6
2014-Sep-12 14:33N 51°24' E 002°09'1212.0
2014-Sep-12 13:34N 51°13' E 002°02'1212.2
2014-Sep-12 12:33N 51°06' E 001°46'49 9.2
2014-Sep-12 07:16N 50°28' E 000°56'7 9.3
2014-Sep-12 06:28N 50°26' E 000°45'9 9.3
2014-Sep-12 05:33N 50°24' E 000°32'27110.0
2014-Sep-11 02:26N 48°13' W 005°31'2912.5
2014-Sep-11 00:05N 47°45' W 005°17'710.8
2014-Sep-10 23:23N 47°38' W 005°14'19311.5
2014-Sep-10 06:29N 44°36' W 003°41'1111.8
2014-Sep-10 05:33N 44°25' W 003°36'1111.2
2014-Sep-10 04:33N 44°15' W 003°30'  

Dump ship's entire track history